This is the latest recevied weather packets stored in our database for station/object OK1LPD-6. If no packets are shown the sender has not sent any weather packets the latest 10 day(s).
| Time | Temp. | Humidity | Pressure | Rain* | Wind** | Luminosity | Snow |
|---|---|---|---|---|---|---|---|
| 1777651474 | 23.89° C | 23% | 1025.4 hPa | 0 mm | - | - | - |
| 1777650874 | 25° C | 23% | 1025.6 hPa | 0 mm | - | - | - |
| 1777650292 | 25° C | 23% | 1025.5 hPa | 0 mm | - | - | - |
| 1777649674 | 23.33° C | 24% | 1025.5 hPa | 0 mm | - | - | - |
| 1777649074 | 23.33° C | 23% | 1025.6 hPa | 0 mm | - | - | - |
| 1777648497 | 23.89° C | 24% | 1025.7 hPa | 0 mm | - | - | - |
| 1777647875 | 23.33° C | 23% | 1025.8 hPa | 0 mm | - | - | - |
| 1777647275 | 23.89° C | 25% | 1026.1 hPa | 0 mm | - | - | - |
| 1777646693 | 22.22° C | 25% | 1026 hPa | 0 mm | - | - | - |
| 1777646075 | 22.22° C | 30% | 1026.2 hPa | 0 mm | - | - | - |
| 1777645475 | 22.22° C | 24% | 1026.2 hPa | 0 mm | - | - | - |
| 1777644894 | 22.78° C | 24% | 1026.4 hPa | 0 mm | - | - | - |
| 1777644275 | 22.78° C | 24% | 1026.4 hPa | 0 mm | - | - | - |
| 1777643676 | 22.22° C | 27% | 1026.3 hPa | 0 mm | - | - | - |
| 1777643093 | 22.22° C | 27% | 1026.4 hPa | 0 mm | - | - | - |
| 1777642476 | 22.22° C | 27% | 1026.6 hPa | 0 mm | - | - | - |
| 1777641875 | 22.22° C | 26% | 1026.7 hPa | 0 mm | - | - | - |
| 1777641293 | 21.67° C | 27% | 1026.7 hPa | 0 mm | - | - | - |
| 1777640675 | 23.33° C | 23% | 1026.9 hPa | 0 mm | - | - | - |
| 1777640076 | 22.78° C | 23% | 1027 hPa | 0 mm | - | - | - |
| 1777639486 | 22.22° C | 28% | 1027.2 hPa | 0 mm | - | - | - |
| 1777638276 | 21.11° C | 30% | 1027.4 hPa | 0 mm | - | - | - |
| 1777637688 | 21.67° C | 30% | 1027.5 hPa | 0 mm | - | - | - |
| 1777637076 | 20.56° C | 30% | 1027.5 hPa | 0 mm | - | - | - |
| 1777636477 | 20.56° C | 30% | 1027.6 hPa | 0 mm | - | - | - |
* Rain latest hour (hover to see other rain measurements)
** Current wind speed in m/s (hover to see current wind gust speed)